Aeroclub de GuadalajaraInformación meteorológica

Información de METAR

 

LEMD - Madrid / Barajas
Distancia desde la estación: SO 49km
Actualización: 23/07/2018 09:00
Despejado
Despejado
 Viento del varies
Viento: varies 4 km/h
Temperatura: 22°C
Rocío: 13°C
Humedad: 57%
Barómetro: 1018 hPa
Resumen: Despejado
Visibilidad: más de 10 km
2018/07/23 07:00 LEMD 230700Z VRB02KT CAVOK 22/13 Q1018 NOSIG
LECV - Madrid / Colmenar Viejo
Distancia desde la estación: OSO 47km
Actualización: 23/07/2018 09:00
Despejado
Despejado
 Viento del E
Viento: E 7 km/h
Temperatura: 22°C
Rocío: 14°C
Humedad: 61%
Barómetro: 1020 hPa
Resumen: Despejado
Visibilidad: más de 10 km
2018/07/23 07:00 LECV 230700Z 09004KT CAVOK 22/14 Q1020
LETO - Madrid / Torrejon
Distancia desde la estación: SSO 45km
Actualización: 23/07/2018 09:00
Despejado
Despejado
 Viento del ENE
Viento: ENE 6 km/h
Temperatura: 22°C
Rocío: 14°C
Humedad: 61%
Barómetro: 1018 hPa
Resumen: Despejado
Visibilidad: más de 10 km
2018/07/23 07:00 LETO 230700Z 07003KT 040V130 CAVOK 22/14 Q1018 NOSIG
 
LEVS - Madrid / Cuatro vientos
Distancia desde la estación: SO 70km
Actualización: 23/07/2018 09:00
Despejado
Despejado
 Viento del ENE
Viento: ENE 7 km/h
Temperatura: 24°C
Rocío: 14°C
Humedad: 54%
Barómetro: 1019 hPa
Resumen: Despejado
Visibilidad: más de 10 km
2018/07/23 07:00 LEVS 230700Z 07004KT 010V120 CAVOK 24/14 Q1019
LEGT - Madrid / Getafe
Distancia desde la estación: SSO 74km
Actualización: 23/07/2018 09:00
Despejado
Despejado
 Viento del ENE
Viento: ENE 9 km/h
Temperatura: 23°C
Rocío: 14°C
Humedad: 57%
Barómetro: 1018 hPa
Resumen: Despejado
Visibilidad: más de 10 km
2018/07/23 07:00 LEGT 230700Z 07005KT 030V100 CAVOK 23/14 Q1018
LEBL - Barcelona / Aeropuerto
Distancia desde la estación: E 447km
Actualización: 23/07/2018 09:00
Despejado
Despejado
 Viento del NO
Viento: NO 13 km/h
Temperatura: 22°C
Rocío: 18°C
Humedad: 78%
Barómetro: 1017 hPa
Resumen: Despejado
Visibilidad: más de 10 km
2018/07/23 07:00 LEBL 230700Z 32007KT CAVOK 22/18 Q1017 NOSIG
 
LEVC - Valencia /Aeropuerto
Distancia desde la estación: ESE 280km
Actualización: 23/07/2018 09:00
Despejado
Despejado
 Viento del varies
Viento: varies 4 km/h
Temperatura: 25°C
Rocío: 17°C
Humedad: 61%
Barómetro: 1017 hPa
Resumen: Despejado
Visibilidad: más de 10 km
2018/07/23 07:00 LEVC 230700Z VRB02KT CAVOK 25/17 Q1017 NOSIG
LEZG - Zaragoza / Aeropuerto
Distancia desde la estación: ENE 206km
Actualización: 23/07/2018 09:00
Despejado
Despejado
 Viento del ONO
Viento: ONO 15 km/h
Temperatura: 21°C
Rocío: 14°C
Humedad: 64%
Barómetro: 1018 hPa
Resumen: Despejado
Visibilidad: más de 10 km
2018/07/23 07:00 LEZG 230700Z 29008KT 270V330 CAVOK 21/14 Q1018
LEGR - Granada / Aeropuerto
Distancia desde la estación: S 411km
Actualización: 23/07/2018 09:00
Despejado
Despejado
 Viento del calm
Viento: Calma
Temperatura: 20°C
Rocío: 12°C
Humedad: 60%
Barómetro: 1019 hPa
Resumen: Despejado
Visibilidad: más de 10 km
2018/07/23 07:00 LEGR 230700Z 00000KT CAVOK 20/12 Q1019